sensor_id;sensor_type;location;lat;lon;timestamp;temperature;humidity
70145;DHT22;57510;51.068;3.872;2022-10-30T00:00:57;15.00;99.90
70145;DHT22;57510;51.068;3.872;2022-10-30T00:03:23;15.10;99.90
70145;DHT22;57510;51.068;3.872;2022-10-30T00:05:49;15.00;99.90
70145;DHT22;57510;51.068;3.872;2022-10-30T00:08:18;15.00;99.90
70145;DHT22;57510;51.068;3.872;2022-10-30T00:10:44;15.00;99.90
70145;DHT22;57510;51.068;3.872;2022-10-30T00:13:11;14.90;99.90
70145;DHT22;57510;51.068;3.872;2022-10-30T00:15:37;14.90;99.90
70145;DHT22;57510;51.068;3.872;2022-10-30T00:18:03;14.90;99.90
70145;DHT22;57510;51.068;3.872;2022-10-30T00:20:29;14.90;99.90
70145;DHT22;57510;51.068;3.872;2022-10-30T00:22:55;14.90;99.90
70145;DHT22;57510;51.068;3.872;2022-10-30T00:25:21;14.90;99.90
70145;DHT22;57510;51.068;3.872;2022-10-30T00:27:46;14.80;99.90
70145;DHT22;57510;51.068;3.872;2022-10-30T00:30:12;14.80;99.90
70145;DHT22;57510;51.068;3.872;2022-10-30T00:32:40;14.80;99.90
70145;DHT22;57510;51.068;3.872;2022-10-30T00:35:08;14.70;99.90
70145;DHT22;57510;51.068;3.872;2022-10-30T00:37:34;14.70;99.90
70145;DHT22;57510;51.068;3.872;2022-10-30T00:40:00;14.70;99.90
70145;DHT22;57510;51.068;3.872;2022-10-30T00:42:29;14.70;99.90
70145;DHT22;57510;51.068;3.872;2022-10-30T00:44:55;14.70;99.90
70145;DHT22;57510;51.068;3.872;2022-10-30T00:47:35;14.70;99.90
70145;DHT22;57510;51.068;3.872;2022-10-30T00:52:59;14.60;99.90
70145;DHT22;57510;51.068;3.872;2022-10-30T00:55:31;14.50;99.90
70145;DHT22;57510;51.068;3.872;2022-10-30T00:57:58;14.50;99.90
70145;DHT22;57510;51.068;3.872;2022-10-30T01:00:26;14.50;99.90
70145;DHT22;57510;51.068;3.872;2022-10-30T01:02:53;14.50;99.90
70145;DHT22;57510;51.068;3.872;2022-10-30T01:05:20;14.50;99.90
70145;DHT22;57510;51.068;3.872;2022-10-30T01:07:47;14.50;99.90
70145;DHT22;57510;51.068;3.872;2022-10-30T01:10:13;14.50;99.90
70145;DHT22;57510;51.068;3.872;2022-10-30T01:12:43;14.50;99.90
70145;DHT22;57510;51.068;3.872;2022-10-30T01:15:11;14.50;99.90
70145;DHT22;57510;51.068;3.872;2022-10-30T01:17:52;14.50;99.90
70145;DHT22;57510;51.068;3.872;2022-10-30T01:31:46;14.40;99.90
70145;DHT22;57510;51.068;3.872;2022-10-30T01:34:20;14.40;99.90
70145;DHT22;57510;51.068;3.872;2022-10-30T01:36:58;14.40;99.90
70145;DHT22;57510;51.068;3.872;2022-10-30T01:39:27;14.40;99.90
70145;DHT22;57510;51.068;3.872;2022-10-30T01:41:53;14.40;99.90
70145;DHT22;57510;51.068;3.872;2022-10-30T01:44:28;14.30;99.90
70145;DHT22;57510;51.068;3.872;2022-10-30T01:49:49;14.20;99.90
70145;DHT22;57510;51.068;3.872;2022-10-30T02:00:37;14.20;99.90
70145;DHT22;57510;51.068;3.872;2022-10-30T02:03:05;14.20;99.90
70145;DHT22;57510;51.068;3.872;2022-10-30T02:05:50;14.20;99.90
70145;DHT22;57510;51.068;3.872;2022-10-30T02:08:17;14.20;99.90
70145;DHT22;57510;51.068;3.872;2022-10-30T02:10:46;14.20;99.90
70145;DHT22;57510;51.068;3.872;2022-10-30T02:13:12;14.30;99.90
70145;DHT22;57510;51.068;3.872;2022-10-30T02:15:38;14.20;99.90
70145;DHT22;57510;51.068;3.872;2022-10-30T02:18:05;14.20;99.90
70145;DHT22;57510;51.068;3.872;2022-10-30T02:20:34;14.20;99.90
70145;DHT22;57510;51.068;3.872;2022-10-30T02:23:00;14.10;99.90
70145;DHT22;57510;51.068;3.872;2022-10-30T02:25:26;14.10;99.90
70145;DHT22;57510;51.068;3.872;2022-10-30T02:27:52;14.10;99.90
70145;DHT22;57510;51.068;3.872;2022-10-30T02:30:18;14.00;99.90
70145;DHT22;57510;51.068;3.872;2022-10-30T02:32:46;14.00;99.90
70145;DHT22;57510;51.068;3.872;2022-10-30T02:35:12;13.90;99.90
70145;DHT22;57510;51.068;3.872;2022-10-30T02:37:38;13.90;99.90
70145;DHT22;57510;51.068;3.872;2022-10-30T02:40:05;13.90;99.90
70145;DHT22;57510;51.068;3.872;2022-10-30T02:42:33;13.90;99.90
70145;DHT22;57510;51.068;3.872;2022-10-30T02:44:59;13.90;99.90
70145;DHT22;57510;51.068;3.872;2022-10-30T02:47:26;13.90;99.90
70145;DHT22;57510;51.068;3.872;2022-10-30T02:49:52;13.90;99.90
70145;DHT22;57510;51.068;3.872;2022-10-30T02:52:18;13.80;99.90
70145;DHT22;57510;51.068;3.872;2022-10-30T02:54:43;13.80;99.90
70145;DHT22;57510;51.068;3.872;2022-10-30T02:57:09;13.80;99.90
70145;DHT22;57510;51.068;3.872;2022-10-30T02:59:37;13.80;99.90
70145;DHT22;57510;51.068;3.872;2022-10-30T03:02:03;13.80;99.90
70145;DHT22;57510;51.068;3.872;2022-10-30T03:04:28;13.90;99.90
70145;DHT22;57510;51.068;3.872;2022-10-30T03:06:54;13.80;99.90
70145;DHT22;57510;51.068;3.872;2022-10-30T03:09:20;13.90;99.90
70145;DHT22;57510;51.068;3.872;2022-10-30T03:11:46;13.80;99.90
70145;DHT22;57510;51.068;3.872;2022-10-30T03:14:11;13.80;99.90
70145;DHT22;57510;51.068;3.872;2022-10-30T03:16:39;13.80;99.90
70145;DHT22;57510;51.068;3.872;2022-10-30T03:19:05;13.80;99.90
70145;DHT22;57510;51.068;3.872;2022-10-30T03:21:31;13.80;99.90
70145;DHT22;57510;51.068;3.872;2022-10-30T03:23:57;13.80;99.90
70145;DHT22;57510;51.068;3.872;2022-10-30T03:26:23;13.80;99.90
70145;DHT22;57510;51.068;3.872;2022-10-30T03:28:49;13.80;99.90
70145;DHT22;57510;51.068;3.872;2022-10-30T03:31:17;13.80;99.90
70145;DHT22;57510;51.068;3.872;2022-10-30T03:33:44;13.80;99.90
70145;DHT22;57510;51.068;3.872;2022-10-30T03:36:12;13.70;99.90
70145;DHT22;57510;51.068;3.872;2022-10-30T03:38:38;13.70;99.90
70145;DHT22;57510;51.068;3.872;2022-10-30T03:41:04;13.70;99.90
70145;DHT22;57510;51.068;3.872;2022-10-30T03:43:30;13.70;99.90
70145;DHT22;57510;51.068;3.872;2022-10-30T03:45:56;13.70;99.90
70145;DHT22;57510;51.068;3.872;2022-10-30T03:48:23;13.70;99.90
70145;DHT22;57510;51.068;3.872;2022-10-30T03:50:54;13.70;99.90
70145;DHT22;57510;51.068;3.872;2022-10-30T03:53:21;13.70;99.90
70145;DHT22;57510;51.068;3.872;2022-10-30T03:55:48;13.70;99.90
70145;DHT22;57510;51.068;3.872;2022-10-30T03:58:14;13.70;99.90
70145;DHT22;57510;51.068;3.872;2022-10-30T04:00:39;13.60;99.90
70145;DHT22;57510;51.068;3.872;2022-10-30T04:03:08;13.70;99.90
70145;DHT22;57510;51.068;3.872;2022-10-30T04:05:35;13.60;99.90
70145;DHT22;57510;51.068;3.872;2022-10-30T04:08:03;13.60;99.90
70145;DHT22;57510;51.068;3.872;2022-10-30T04:10:30;13.60;99.90
70145;DHT22;57510;51.068;3.872;2022-10-30T04:13:04;13.60;99.90
70145;DHT22;57510;51.068;3.872;2022-10-30T04:15:30;13.60;99.90
70145;DHT22;57510;51.068;3.872;2022-10-30T04:17:56;13.60;99.90
70145;DHT22;57510;51.068;3.872;2022-10-30T04:20:24;13.60;99.90
70145;DHT22;57510;51.068;3.872;2022-10-30T04:23:05;13.50;99.90
70145;DHT22;57510;51.068;3.872;2022-10-30T04:25:32;13.50;99.90
70145;DHT22;57510;51.068;3.872;2022-10-30T04:27:58;13.50;99.90
70145;DHT22;57510;51.068;3.872;2022-10-30T04:30:24;13.50;99.90
70145;DHT22;57510;51.068;3.872;2022-10-30T04:32:56;13.50;99.90
70145;DHT22;57510;51.068;3.872;2022-10-30T04:35:26;13.50;99.90
70145;DHT22;57510;51.068;3.872;2022-10-30T04:37:57;13.50;99.90
70145;DHT22;57510;51.068;3.872;2022-10-30T04:40:25;13.50;99.90
70145;DHT22;57510;51.068;3.872;2022-10-30T04:42:54;13.40;99.90
70145;DHT22;57510;51.068;3.872;2022-10-30T04:45:21;13.40;99.90
70145;DHT22;57510;51.068;3.872;2022-10-30T04:47:50;13.30;99.90
70145;DHT22;57510;51.068;3.872;2022-10-30T04:50:16;13.30;99.90
70145;DHT22;57510;51.068;3.872;2022-10-30T04:52:42;13.30;99.90
70145;DHT22;57510;51.068;3.872;2022-10-30T04:55:10;13.30;99.90
70145;DHT22;57510;51.068;3.872;2022-10-30T04:57:36;13.30;99.90
70145;DHT22;57510;51.068;3.872;2022-10-30T05:00:06;13.30;99.90
70145;DHT22;57510;51.068;3.872;2022-10-30T05:02:34;13.30;99.90
70145;DHT22;57510;51.068;3.872;2022-10-30T05:05:01;13.20;99.90
70145;DHT22;57510;51.068;3.872;2022-10-30T05:07:26;13.10;99.90
70145;DHT22;57510;51.068;3.872;2022-10-30T05:09:52;13.10;99.90
70145;DHT22;57510;51.068;3.872;2022-10-30T05:12:17;13.10;99.90
70145;DHT22;57510;51.068;3.872;2022-10-30T05:14:44;13.10;99.90
70145;DHT22;57510;51.068;3.872;2022-10-30T05:17:09;13.10;99.90
70145;DHT22;57510;51.068;3.872;2022-10-30T05:19:35;13.10;99.90
70145;DHT22;57510;51.068;3.872;2022-10-30T05:22:01;13.20;99.90
70145;DHT22;57510;51.068;3.872;2022-10-30T05:24:26;13.20;99.90
70145;DHT22;57510;51.068;3.872;2022-10-30T05:26:52;13.20;99.90
70145;DHT22;57510;51.068;3.872;2022-10-30T05:29:18;13.10;99.90
70145;DHT22;57510;51.068;3.872;2022-10-30T05:31:44;13.10;99.90
70145;DHT22;57510;51.068;3.872;2022-10-30T05:34:10;13.20;99.90
70145;DHT22;57510;51.068;3.872;2022-10-30T05:36:36;13.20;99.90
70145;DHT22;57510;51.068;3.872;2022-10-30T05:39:01;13.20;99.90
70145;DHT22;57510;51.068;3.872;2022-10-30T05:41:28;13.20;99.90
70145;DHT22;57510;51.068;3.872;2022-10-30T05:43:54;13.20;99.90
70145;DHT22;57510;51.068;3.872;2022-10-30T05:46:20;13.30;99.90
70145;DHT22;57510;51.068;3.872;2022-10-30T05:48:46;13.40;99.90
70145;DHT22;57510;51.068;3.872;2022-10-30T05:51:12;13.40;99.90
70145;DHT22;57510;51.068;3.872;2022-10-30T05:53:38;13.50;99.90
70145;DHT22;57510;51.068;3.872;2022-10-30T05:56:04;13.50;99.90
70145;DHT22;57510;51.068;3.872;2022-10-30T05:58:29;13.50;99.90
70145;DHT22;57510;51.068;3.872;2022-10-30T06:00:55;13.50;99.90
70145;DHT22;57510;51.068;3.872;2022-10-30T06:03:21;13.50;99.90
70145;DHT22;57510;51.068;3.872;2022-10-30T06:05:49;13.40;99.90
70145;DHT22;57510;51.068;3.872;2022-10-30T06:08:14;13.40;99.90
70145;DHT22;57510;51.068;3.872;2022-10-30T06:10:41;13.30;99.90
70145;DHT22;57510;51.068;3.872;2022-10-30T06:13:08;13.30;99.90
70145;DHT22;57510;51.068;3.872;2022-10-30T06:15:34;13.30;99.90
70145;DHT22;57510;51.068;3.872;2022-10-30T06:18:00;13.30;99.90
70145;DHT22;57510;51.068;3.872;2022-10-30T06:20:27;13.30;99.90
70145;DHT22;57510;51.068;3.872;2022-10-30T06:22:54;13.30;99.90
70145;DHT22;57510;51.068;3.872;2022-10-30T06:25:21;13.40;99.90
70145;DHT22;57510;51.068;3.872;2022-10-30T06:27:47;13.40;99.90
70145;DHT22;57510;51.068;3.872;2022-10-30T06:30:13;13.40;99.90
70145;DHT22;57510;51.068;3.872;2022-10-30T06:32:39;13.40;99.90
70145;DHT22;57510;51.068;3.872;2022-10-30T06:35:05;13.40;99.90
70145;DHT22;57510;51.068;3.872;2022-10-30T06:37:30;13.40;99.90
70145;DHT22;57510;51.068;3.872;2022-10-30T06:39:56;13.40;99.90
70145;DHT22;57510;51.068;3.872;2022-10-30T06:42:22;13.40;99.90
70145;DHT22;57510;51.068;3.872;2022-10-30T06:44:47;13.40;99.90
70145;DHT22;57510;51.068;3.872;2022-10-30T06:47:14;13.40;99.90
70145;DHT22;57510;51.068;3.872;2022-10-30T06:49:40;13.40;99.90
70145;DHT22;57510;51.068;3.872;2022-10-30T06:52:06;13.40;99.90
70145;DHT22;57510;51.068;3.872;2022-10-30T06:54:32;13.40;99.90
70145;DHT22;57510;51.068;3.872;2022-10-30T06:56:57;13.50;99.90
70145;DHT22;57510;51.068;3.872;2022-10-30T06:59:23;13.50;99.90
70145;DHT22;57510;51.068;3.872;2022-10-30T07:01:49;13.50;99.90
70145;DHT22;57510;51.068;3.872;2022-10-30T07:04:17;13.50;99.90
70145;DHT22;57510;51.068;3.872;2022-10-30T07:06:43;13.50;99.90
70145;DHT22;57510;51.068;3.872;2022-10-30T07:09:09;13.70;99.90
70145;DHT22;57510;51.068;3.872;2022-10-30T07:11:34;13.80;99.90
70145;DHT22;57510;51.068;3.872;2022-10-30T07:14:00;13.80;99.90
70145;DHT22;57510;51.068;3.872;2022-10-30T07:16:29;13.80;99.90
70145;DHT22;57510;51.068;3.872;2022-10-30T07:18:54;13.90;99.90
70145;DHT22;57510;51.068;3.872;2022-10-30T07:21:22;14.00;99.90
70145;DHT22;57510;51.068;3.872;2022-10-30T07:23:52;14.10;99.90
70145;DHT22;57510;51.068;3.872;2022-10-30T07:26:18;14.20;99.90
70145;DHT22;57510;51.068;3.872;2022-10-30T07:28:43;14.30;99.90
70145;DHT22;57510;51.068;3.872;2022-10-30T07:31:09;14.40;99.90
70145;DHT22;57510;51.068;3.872;2022-10-30T07:33:34;14.50;99.90
70145;DHT22;57510;51.068;3.872;2022-10-30T07:36:00;14.50;99.90
70145;DHT22;57510;51.068;3.872;2022-10-30T07:38:26;14.50;99.90
70145;DHT22;57510;51.068;3.872;2022-10-30T07:40:52;14.70;99.90
70145;DHT22;57510;51.068;3.872;2022-10-30T07:43:18;14.70;99.90
70145;DHT22;57510;51.068;3.872;2022-10-30T07:45:44;14.70;99.90
70145;DHT22;57510;51.068;3.872;2022-10-30T07:48:10;14.70;99.90
70145;DHT22;57510;51.068;3.872;2022-10-30T07:50:36;14.60;99.90
70145;DHT22;57510;51.068;3.872;2022-10-30T07:53:01;14.60;99.90
70145;DHT22;57510;51.068;3.872;2022-10-30T07:55:27;14.70;99.90
70145;DHT22;57510;51.068;3.872;2022-10-30T07:57:52;14.80;99.90
70145;DHT22;57510;51.068;3.872;2022-10-30T08:00:18;15.00;99.90
70145;DHT22;57510;51.068;3.872;2022-10-30T08:02:49;15.30;99.90
70145;DHT22;57510;51.068;3.872;2022-10-30T08:05:17;15.50;99.90
70145;DHT22;57510;51.068;3.872;2022-10-30T08:07:45;15.70;99.90
70145;DHT22;57510;51.068;3.872;2022-10-30T08:10:11;15.80;99.90
70145;DHT22;57510;51.068;3.872;2022-10-30T08:12:39;15.90;99.90
70145;DHT22;57510;51.068;3.872;2022-10-30T08:15:08;16.00;99.90
70145;DHT22;57510;51.068;3.872;2022-10-30T08:17:40;16.10;99.90
70145;DHT22;57510;51.068;3.872;2022-10-30T08:20:06;16.10;99.90
70145;DHT22;57510;51.068;3.872;2022-10-30T08:22:32;16.10;99.90
70145;DHT22;57510;51.068;3.872;2022-10-30T08:24:57;16.10;99.90
70145;DHT22;57510;51.068;3.872;2022-10-30T08:27:23;16.20;99.90
70145;DHT22;57510;51.068;3.872;2022-10-30T08:29:49;16.20;99.90
70145;DHT22;57510;51.068;3.872;2022-10-30T08:32:14;16.30;99.90
70145;DHT22;57510;51.068;3.872;2022-10-30T08:34:40;16.30;99.90
70145;DHT22;57510;51.068;3.872;2022-10-30T08:37:06;16.40;99.90
70145;DHT22;57510;51.068;3.872;2022-10-30T08:39:32;16.60;99.90
70145;DHT22;57510;51.068;3.872;2022-10-30T08:41:58;16.60;99.90
70145;DHT22;57510;51.068;3.872;2022-10-30T08:44:24;16.70;99.90
70145;DHT22;57510;51.068;3.872;2022-10-30T08:46:49;16.90;99.90
70145;DHT22;57510;51.068;3.872;2022-10-30T08:49:15;17.10;99.90
70145;DHT22;57510;51.068;3.872;2022-10-30T08:51:41;17.20;99.90
70145;DHT22;57510;51.068;3.872;2022-10-30T08:54:08;17.40;99.90
70145;DHT22;57510;51.068;3.872;2022-10-30T08:56:34;17.50;99.60
70145;DHT22;57510;51.068;3.872;2022-10-30T08:59:00;17.60;99.10
70145;DHT22;57510;51.068;3.872;2022-10-30T09:01:26;17.80;99.10
70145;DHT22;57510;51.068;3.872;2022-10-30T09:03:52;17.90;99.10
70145;DHT22;57510;51.068;3.872;2022-10-30T09:06:17;18.00;98.90
70145;DHT22;57510;51.068;3.872;2022-10-30T09:08:51;17.90;98.60
70145;DHT22;57510;51.068;3.872;2022-10-30T09:11:22;18.00;98.50
70145;DHT22;57510;51.068;3.872;2022-10-30T09:13:48;18.00;98.30
70145;DHT22;57510;51.068;3.872;2022-10-30T09:16:14;18.20;98.20
70145;DHT22;57510;51.068;3.872;2022-10-30T09:18:46;18.10;97.90
70145;DHT22;57510;51.068;3.872;2022-10-30T09:21:11;18.10;97.90
70145;DHT22;57510;51.068;3.872;2022-10-30T09:23:40;18.20;97.70
70145;DHT22;57510;51.068;3.872;2022-10-30T09:26:06;18.10;98.00
70145;DHT22;57510;51.068;3.872;2022-10-30T09:28:32;18.30;97.90
70145;DHT22;57510;51.068;3.872;2022-10-30T09:31:04;18.30;97.90
70145;DHT22;57510;51.068;3.872;2022-10-30T09:33:30;18.40;97.70
70145;DHT22;57510;51.068;3.872;2022-10-30T09:35:56;18.50;97.60
70145;DHT22;57510;51.068;3.872;2022-10-30T09:38:23;18.60;97.30
70145;DHT22;57510;51.068;3.872;2022-10-30T09:55:19;19.40;95.70
70145;DHT22;57510;51.068;3.872;2022-10-30T10:00:06;19.50;95.70
70145;DHT22;57510;51.068;3.872;2022-10-30T10:02:38;19.70;95.60
70145;DHT22;57510;51.068;3.872;2022-10-30T10:05:20;19.80;95.40
70145;DHT22;57510;51.068;3.872;2022-10-30T10:07:57;20.00;94.90
70145;DHT22;57510;51.068;3.872;2022-10-30T10:10:41;20.10;94.80
70145;DHT22;57510;51.068;3.872;2022-10-30T10:15:52;20.40;94.50
70145;DHT22;57510;51.068;3.872;2022-10-30T10:18:28;20.40;94.40
70145;DHT22;57510;51.068;3.872;2022-10-30T10:20:58;20.50;94.20
70145;DHT22;57510;51.068;3.872;2022-10-30T10:24:01;20.50;94.10
70145;DHT22;57510;51.068;3.872;2022-10-30T10:29:05;20.80;94.00
70145;DHT22;57510;51.068;3.872;2022-10-30T10:32:36;20.90;93.90
70145;DHT22;57510;51.068;3.872;2022-10-30T10:45:56;20.90;94.00
70145;DHT22;57510;51.068;3.872;2022-10-30T10:48:45;21.00;94.10
70145;DHT22;57510;51.068;3.872;2022-10-30T10:51:36;21.10;93.60
70145;DHT22;57510;51.068;3.872;2022-10-30T10:54:22;21.00;93.90
70145;DHT22;57510;51.068;3.872;2022-10-30T10:56:50;21.00;93.60
70145;DHT22;57510;51.068;3.872;2022-10-30T10:59:20;21.10;93.50
70145;DHT22;57510;51.068;3.872;2022-10-30T11:04:52;21.20;93.40
70145;DHT22;57510;51.068;3.872;2022-10-30T11:07:24;21.20;93.20
70145;DHT22;57510;51.068;3.872;2022-10-30T11:09:55;21.20;93.10
70145;DHT22;57510;51.068;3.872;2022-10-30T11:12:26;21.20;93.00
70145;DHT22;57510;51.068;3.872;2022-10-30T11:14:53;21.30;92.90
70145;DHT22;57510;51.068;3.872;2022-10-30T11:17:26;21.40;93.10
70145;DHT22;57510;51.068;3.872;2022-10-30T11:20:02;21.60;92.80
70145;DHT22;57510;51.068;3.872;2022-10-30T11:22:39;21.80;92.60
70145;DHT22;57510;51.068;3.872;2022-10-30T11:25:17;21.90;92.20
70145;DHT22;57510;51.068;3.872;2022-10-30T11:27:45;21.70;92.40
70145;DHT22;57510;51.068;3.872;2022-10-30T11:30:26;21.70;92.50
70145;DHT22;57510;51.068;3.872;2022-10-30T11:32:53;21.90;92.40
70145;DHT22;57510;51.068;3.872;2022-10-30T11:35:20;22.00;92.30
70145;DHT22;57510;51.068;3.872;2022-10-30T11:37:49;22.00;92.20
70145;DHT22;57510;51.068;3.872;2022-10-30T11:40:21;22.00;91.90
70145;DHT22;57510;51.068;3.872;2022-10-30T11:42:55;22.20;91.80
70145;DHT22;57510;51.068;3.872;2022-10-30T11:45:41;22.30;91.70
70145;DHT22;57510;51.068;3.872;2022-10-30T11:48:15;22.20;91.70
70145;DHT22;57510;51.068;3.872;2022-10-30T11:50:47;22.20;91.50
70145;DHT22;57510;51.068;3.872;2022-10-30T11:53:24;22.20;91.60
70145;DHT22;57510;51.068;3.872;2022-10-30T11:55:57;22.20;91.30
70145;DHT22;57510;51.068;3.872;2022-10-30T11:58:36;22.40;91.20
70145;DHT22;57510;51.068;3.872;2022-10-30T12:03:54;22.60;90.80
70145;DHT22;57510;51.068;3.872;2022-10-30T12:09:13;22.80;90.60
70145;DHT22;57510;51.068;3.872;2022-10-30T12:11:41;22.90;90.40
70145;DHT22;57510;51.068;3.872;2022-10-30T12:14:29;22.70;90.00
70145;DHT22;57510;51.068;3.872;2022-10-30T12:16:55;22.70;90.20
70145;DHT22;57510;51.068;3.872;2022-10-30T12:19:23;22.50;90.30
70145;DHT22;57510;51.068;3.872;2022-10-30T12:21:51;22.50;90.60
70145;DHT22;57510;51.068;3.872;2022-10-30T12:24:37;22.50;90.60
70145;DHT22;57510;51.068;3.872;2022-10-30T12:27:11;22.60;90.60
70145;DHT22;57510;51.068;3.872;2022-10-30T12:32:17;22.70;90.20
70145;DHT22;57510;51.068;3.872;2022-10-30T12:34:58;22.70;90.00
70145;DHT22;57510;51.068;3.872;2022-10-30T12:37:40;22.80;90.00
70145;DHT22;57510;51.068;3.872;2022-10-30T12:40:14;22.70;90.00
70145;DHT22;57510;51.068;3.872;2022-10-30T12:42:50;22.50;90.10
70145;DHT22;57510;51.068;3.872;2022-10-30T12:45:25;22.50;90.20
70145;DHT22;57510;51.068;3.872;2022-10-30T12:48:11;22.40;90.20
70145;DHT22;57510;51.068;3.872;2022-10-30T12:53:33;22.20;90.80
70145;DHT22;57510;51.068;3.872;2022-10-30T12:56:15;22.10;90.80
70145;DHT22;57510;51.068;3.872;2022-10-30T12:58:51;22.00;90.60
70145;DHT22;57510;51.068;3.872;2022-10-30T13:01:23;22.00;90.90
70145;DHT22;57510;51.068;3.872;2022-10-30T13:06:26;21.60;91.30
70145;DHT22;57510;51.068;3.872;2022-10-30T13:09:14;21.60;91.30
70145;DHT22;57510;51.068;3.872;2022-10-30T13:12:13;21.70;91.40
70145;DHT22;57510;51.068;3.872;2022-10-30T13:15:22;21.70;91.10
70145;DHT22;57510;51.068;3.872;2022-10-30T13:17:49;21.60;91.30
70145;DHT22;57510;51.068;3.872;2022-10-30T13:20:15;21.70;91.40
70145;DHT22;57510;51.068;3.872;2022-10-30T13:23:04;21.80;91.30
70145;DHT22;57510;51.068;3.872;2022-10-30T13:25:58;21.70;91.10
70145;DHT22;57510;51.068;3.872;2022-10-30T13:28:39;21.40;91.50
70145;DHT22;57510;51.068;3.872;2022-10-30T13:31:22;21.50;91.60
70145;DHT22;57510;51.068;3.872;2022-10-30T13:34:10;21.90;91.20
70145;DHT22;57510;51.068;3.872;2022-10-30T13:39:24;21.90;90.50
70145;DHT22;57510;51.068;3.872;2022-10-30T13:42:04;21.90;90.80
70145;DHT22;57510;51.068;3.872;2022-10-30T13:47:26;21.90;90.20
70145;DHT22;57510;51.068;3.872;2022-10-30T13:52:22;22.00;90.50
70145;DHT22;57510;51.068;3.872;2022-10-30T13:55:16;21.90;90.30
70145;DHT22;57510;51.068;3.872;2022-10-30T13:57:45;22.00;90.50
70145;DHT22;57510;51.068;3.872;2022-10-30T14:10:59;21.40;91.10
70145;DHT22;57510;51.068;3.872;2022-10-30T14:13:27;21.30;91.10
70145;DHT22;57510;51.068;3.872;2022-10-30T14:16:00;21.20;91.20
70145;DHT22;57510;51.068;3.872;2022-10-30T14:18:29;21.20;91.30
70145;DHT22;57510;51.068;3.872;2022-10-30T14:20:57;21.00;91.50
70145;DHT22;57510;51.068;3.872;2022-10-30T14:26:13;20.70;91.80
70145;DHT22;57510;51.068;3.872;2022-10-30T14:28:43;20.60;91.90
70145;DHT22;57510;51.068;3.872;2022-10-30T14:31:14;20.40;92.20
70145;DHT22;57510;51.068;3.872;2022-10-30T14:33:42;20.40;92.40
70145;DHT22;57510;51.068;3.872;2022-10-30T14:36:16;20.10;92.30
70145;DHT22;57510;51.068;3.872;2022-10-30T14:38:53;20.00;92.50
70145;DHT22;57510;51.068;3.872;2022-10-30T14:41:36;19.80;92.80
70145;DHT22;57510;51.068;3.872;2022-10-30T14:47:31;19.30;93.40
70145;DHT22;57510;51.068;3.872;2022-10-30T14:50:12;19.30;93.60
70145;DHT22;57510;51.068;3.872;2022-10-30T14:55:52;19.20;94.10
70145;DHT22;57510;51.068;3.872;2022-10-30T14:58:23;19.20;94.20
70145;DHT22;57510;51.068;3.872;2022-10-30T15:00:49;19.20;94.00
70145;DHT22;57510;51.068;3.872;2022-10-30T15:09:14;19.40;93.60
70145;DHT22;57510;51.068;3.872;2022-10-30T15:14:44;19.30;93.60
70145;DHT22;57510;51.068;3.872;2022-10-30T15:19:59;19.40;93.50
70145;DHT22;57510;51.068;3.872;2022-10-30T15:22:27;19.40;93.60
70145;DHT22;57510;51.068;3.872;2022-10-30T15:24:57;19.40;93.70
70145;DHT22;57510;51.068;3.872;2022-10-30T15:27:24;19.30;94.20
70145;DHT22;57510;51.068;3.872;2022-10-30T15:30:00;19.20;94.30
70145;DHT22;57510;51.068;3.872;2022-10-30T15:32:26;19.10;94.40
70145;DHT22;57510;51.068;3.872;2022-10-30T15:34:58;19.00;94.40
70145;DHT22;57510;51.068;3.872;2022-10-30T15:37:25;19.00;94.50
70145;DHT22;57510;51.068;3.872;2022-10-30T15:40:14;18.90;94.60
70145;DHT22;57510;51.068;3.872;2022-10-30T15:42:41;18.90;94.70
70145;DHT22;57510;51.068;3.872;2022-10-30T15:45:43;19.00;94.70
70145;DHT22;57510;51.068;3.872;2022-10-30T15:48:37;18.80;95.10
70145;DHT22;57510;51.068;3.872;2022-10-30T15:51:15;18.80;95.20
70145;DHT22;57510;51.068;3.872;2022-10-30T15:53:48;18.80;95.40
70145;DHT22;57510;51.068;3.872;2022-10-30T15:59:00;18.70;95.50
70145;DHT22;57510;51.068;3.872;2022-10-30T16:01:42;18.50;95.70
70145;DHT22;57510;51.068;3.872;2022-10-30T16:04:17;18.60;95.80
70145;DHT22;57510;51.068;3.872;2022-10-30T16:06:49;18.30;96.00
70145;DHT22;57510;51.068;3.872;2022-10-30T16:09:15;18.20;96.70
70145;DHT22;57510;51.068;3.872;2022-10-30T16:11:42;18.20;96.70
70145;DHT22;57510;51.068;3.872;2022-10-30T16:14:13;18.10;96.80
70145;DHT22;57510;51.068;3.872;2022-10-30T16:16:42;18.10;97.00
70145;DHT22;57510;51.068;3.872;2022-10-30T16:19:39;18.00;97.10
70145;DHT22;57510;51.068;3.872;2022-10-30T16:22:04;18.00;97.40
70145;DHT22;57510;51.068;3.872;2022-10-30T16:24:33;17.90;97.50
70145;DHT22;57510;51.068;3.872;2022-10-30T16:27:17;17.90;97.50
70145;DHT22;57510;51.068;3.872;2022-10-30T16:29:49;17.70;97.70
70145;DHT22;57510;51.068;3.872;2022-10-30T16:32:18;17.70;97.80
70145;DHT22;57510;51.068;3.872;2022-10-30T16:34:44;17.60;97.80
70145;DHT22;57510;51.068;3.872;2022-10-30T16:37:18;17.60;97.90
70145;DHT22;57510;51.068;3.872;2022-10-30T16:39:48;17.50;98.10
70145;DHT22;57510;51.068;3.872;2022-10-30T16:42:19;17.50;98.00
70145;DHT22;57510;51.068;3.872;2022-10-30T16:44:45;17.60;98.00
70145;DHT22;57510;51.068;3.872;2022-10-30T16:49:49;17.60;97.90
70145;DHT22;57510;51.068;3.872;2022-10-30T16:52:19;17.60;97.90
70145;DHT22;57510;51.068;3.872;2022-10-30T16:55:13;17.50;97.80
70145;DHT22;57510;51.068;3.872;2022-10-30T16:57:42;17.40;97.90
70145;DHT22;57510;51.068;3.872;2022-10-30T17:00:20;17.40;97.90
70145;DHT22;57510;51.068;3.872;2022-10-30T17:02:48;17.20;98.00
70145;DHT22;57510;51.068;3.872;2022-10-30T17:05:29;17.20;98.00
70145;DHT22;57510;51.068;3.872;2022-10-30T17:07:57;17.20;98.00
70145;DHT22;57510;51.068;3.872;2022-10-30T17:13:38;17.10;98.00
70145;DHT22;57510;51.068;3.872;2022-10-30T17:16:27;17.00;98.10
70145;DHT22;57510;51.068;3.872;2022-10-30T17:18:58;16.80;98.20
70145;DHT22;57510;51.068;3.872;2022-10-30T17:21:35;16.70;98.30
70145;DHT22;57510;51.068;3.872;2022-10-30T17:24:02;16.70;98.40
70145;DHT22;57510;51.068;3.872;2022-10-30T17:26:28;16.70;98.30
70145;DHT22;57510;51.068;3.872;2022-10-30T17:28:57;16.60;98.40
70145;DHT22;57510;51.068;3.872;2022-10-30T17:31:43;16.50;98.50
70145;DHT22;57510;51.068;3.872;2022-10-30T17:34:13;16.50;98.70
70145;DHT22;57510;51.068;3.872;2022-10-30T17:36:39;16.50;98.70
70145;DHT22;57510;51.068;3.872;2022-10-30T17:39:05;16.50;98.90
70145;DHT22;57510;51.068;3.872;2022-10-30T17:41:30;16.50;98.90
70145;DHT22;57510;51.068;3.872;2022-10-30T17:43:57;16.50;98.80
70145;DHT22;57510;51.068;3.872;2022-10-30T17:46:23;16.50;98.80
70145;DHT22;57510;51.068;3.872;2022-10-30T17:48:49;16.50;98.90
70145;DHT22;57510;51.068;3.872;2022-10-30T17:51:15;16.40;98.90